ACA270 CYWG-CYYZ
Flight info
| Callsign | ACA270 |
|---|---|
| Flight time | 1h 54m |
| Altitude | 37000 |
| Route | RORMA DCT AXOMA DCT SIDPO DCT DEGVA DCT AGLIN DCT OTNIK BOXUM7 |
| Aircraft | A321/M-SDE3FGHIRWY/LB1 |
Departure
| Time | 2026-05-08 00:15 |
|---|---|
| Airport | Winnipeg / James Armstrong Richardson International Airport (CYWG) |
Arrival
| Time | 2026-05-08 02:10 |
|---|---|
| Airport | Toronto Pearson International Airport (CYYZ) |
| Time | Latitude | Longitude | Altitude | Speed | Heading |
|---|---|---|---|---|---|
| 2026-05-07 23:30 | 49.90670 | -97.22679 | 789 ft | 0 kts | 164° |
| 2026-05-08 00:04 | 49.90680 | -97.22683 | 786 ft | 4 kts | 164° |
| 2026-05-08 00:05 | 49.90706 | -97.22695 | 786 ft | 4 kts | 164° |
| 2026-05-08 00:05 | 49.90731 | -97.22706 | 786 ft | 2 kts | 164° |
| 2026-05-08 00:05 | 49.90732 | -97.22706 | 786 ft | 0 kts | 164° |
| 2026-05-08 00:07 | 49.90729 | -97.22708 | 786 ft | 1 kts | 186° |
| 2026-05-08 00:07 | 49.90727 | -97.22722 | 786 ft | 1 kts | 260° |
| 2026-05-08 00:07 | 49.90727 | -97.22723 | 786 ft | 0 kts | 262° |
| 2026-05-08 00:08 | 49.90727 | -97.22727 | 786 ft | 2 kts | 264° |
| 2026-05-08 00:08 | 49.90728 | -97.22795 | 786 ft | 10 kts | 265° |
| 2026-05-08 00:09 | 49.90714 | -97.22910 | 786 ft | 11 kts | 259° |
| 2026-05-08 00:09 | 49.90699 | -97.23030 | 786 ft | 14 kts | 259° |
| 2026-05-08 00:09 | 49.90675 | -97.23221 | 786 ft | 20 kts | 259° |
| 2026-05-08 00:09 | 49.90585 | -97.23340 | 786 ft | 17 kts | 199° |
| 2026-05-08 00:10 | 49.90475 | -97.23400 | 789 ft | 16 kts | 200° |
| 2026-05-08 00:10 | 49.90374 | -97.23453 | 786 ft | 15 kts | 199° |
| 2026-05-08 00:10 | 49.90273 | -97.23408 | 786 ft | 21 kts | 138° |
| 2026-05-08 00:10 | 49.90164 | -97.23256 | 786 ft | 20 kts | 137° |
| 2026-05-08 00:11 | 49.90063 | -97.23120 | 786 ft | 18 kts | 140° |
| 2026-05-08 00:11 | 49.89972 | -97.22994 | 786 ft | 17 kts | 138° |
| 2026-05-08 00:11 | 49.89891 | -97.22878 | 786 ft | 16 kts | 134° |
| 2026-05-08 00:11 | 49.89811 | -97.22729 | 786 ft | 19 kts | 130° |
| 2026-05-08 00:12 | 49.89724 | -97.22570 | 786 ft | 19 kts | 139° |
| 2026-05-08 00:12 | 49.89623 | -97.22630 | 786 ft | 18 kts | 228° |
| 2026-05-08 00:12 | 49.89534 | -97.22786 | 785 ft | 21 kts | 228° |
| 2026-05-08 00:12 | 49.89482 | -97.22993 | 786 ft | 22 kts | 274° |
| 2026-05-08 00:13 | 49.89505 | -97.23242 | 786 ft | 25 kts | 277° |
| 2026-05-08 00:13 | 49.89526 | -97.23521 | 786 ft | 27 kts | 277° |
| 2026-05-08 00:13 | 49.89549 | -97.23803 | 786 ft | 26 kts | 276° |
| 2026-05-08 00:13 | 49.89562 | -97.23981 | 787 ft | 11 kts | 277° |
| 2026-05-08 00:14 | 49.89571 | -97.24087 | 788 ft | 10 kts | 279° |
| 2026-05-08 00:14 | 49.89638 | -97.24162 | 788 ft | 16 kts | 10° |
| 2026-05-08 00:14 | 49.89667 | -97.24155 | 788 ft | 0 kts | 8° |
| 2026-05-08 00:14 | 49.89712 | -97.24145 | 789 ft | 32 kts | 8° |
| 2026-05-08 00:15 | 49.90162 | -97.24043 | 785 ft | 96 kts | 8° |
| 2026-05-08 00:15 | 49.90993 | -97.23852 | 788 ft | 143 kts | 8° |
| 2026-05-08 00:15 | 49.92024 | -97.23637 | 1228 ft | 145 kts | 3° |
| 2026-05-08 00:15 | 49.93060 | -97.23484 | 1705 ft | 157 kts | 2° |
| 2026-05-08 00:16 | 49.94197 | -97.23330 | 2166 ft | 169 kts | 3° |
| 2026-05-08 00:16 | 49.95368 | -97.23081 | 2698 ft | 172 kts | 7° |
| 2026-05-08 00:16 | 49.96467 | -97.22114 | 2883 ft | 203 kts | 50° |
| 2026-05-08 00:16 | 49.96901 | -97.19881 | 3098 ft | 236 kts | 86° |
| 2026-05-08 00:17 | 49.96832 | -97.17191 | 3472 ft | 262 kts | 93° |
| 2026-05-08 00:17 | 49.96625 | -97.14294 | 4063 ft | 276 kts | 95° |
| 2026-05-08 00:17 | 49.96378 | -97.11301 | 4835 ft | 284 kts | 94° |
| 2026-05-08 00:17 | 49.96134 | -97.08226 | 5595 ft | 290 kts | 94° |
| 2026-05-08 00:18 | 49.95910 | -97.05089 | 6419 ft | 295 kts | 92° |
| 2026-05-08 00:18 | 49.95700 | -97.01896 | 7205 ft | 299 kts | 92° |
| 2026-05-08 00:18 | 49.95506 | -96.98672 | 8029 ft | 301 kts | 91° |
| 2026-05-08 00:18 | 49.95317 | -96.95414 | 8859 ft | 304 kts | 91° |
| 2026-05-08 00:19 | 49.95128 | -96.92126 | 9693 ft | 307 kts | 91° |
| 2026-05-08 00:19 | 49.94939 | -96.88838 | 10269 ft | 317 kts | 91° |
| 2026-05-08 00:19 | 49.94739 | -96.85303 | 10479 ft | 340 kts | 91° |
| 2026-05-08 00:19 | 49.94521 | -96.81525 | 10749 ft | 360 kts | 92° |
| 2026-05-08 00:20 | 49.94284 | -96.77620 | 11345 ft | 367 kts | 92° |
| 2026-05-08 00:20 | 49.94041 | -96.73654 | 12044 ft | 371 kts | 92° |
| 2026-05-08 00:20 | 49.93851 | -96.69648 | 12756 ft | 374 kts | 89° |
| 2026-05-08 00:20 | 49.93771 | -96.65604 | 13465 ft | 377 kts | 86° |
| 2026-05-08 00:21 | 49.93755 | -96.61516 | 14115 ft | 380 kts | 85° |
| 2026-05-08 00:21 | 49.93760 | -96.57392 | 14740 ft | 384 kts | 85° |
| 2026-05-08 00:21 | 49.93765 | -96.53226 | 15352 ft | 388 kts | 85° |
| 2026-05-08 00:21 | 49.93755 | -96.49010 | 15957 ft | 393 kts | 85° |
| 2026-05-08 00:22 | 49.93725 | -96.44750 | 16560 ft | 397 kts | 86° |
| 2026-05-08 00:22 | 49.93683 | -96.40448 | 17153 ft | 401 kts | 86° |
| 2026-05-08 00:22 | 49.93635 | -96.36097 | 17765 ft | 405 kts | 86° |
| 2026-05-08 00:22 | 49.93592 | -96.31706 | 18307 ft | 409 kts | 85° |
| 2026-05-08 00:23 | 49.93551 | -96.27268 | 18803 ft | 413 kts | 85° |
| 2026-05-08 00:23 | 49.93509 | -96.22799 | 19302 ft | 416 kts | 85° |
| 2026-05-08 00:23 | 49.93465 | -96.18291 | 19800 ft | 419 kts | 85° |
| 2026-05-08 00:23 | 49.93420 | -96.13752 | 20292 ft | 422 kts | 85° |
| 2026-05-08 00:24 | 49.93375 | -96.09183 | 20778 ft | 425 kts | 85° |
| 2026-05-08 00:24 | 49.93326 | -96.04582 | 21266 ft | 428 kts | 85° |
| 2026-05-08 00:24 | 49.93274 | -95.99944 | 21740 ft | 431 kts | 85° |
| 2026-05-08 00:24 | 49.93222 | -95.95271 | 22211 ft | 434 kts | 85° |
| 2026-05-08 00:25 | 49.93167 | -95.90570 | 22696 ft | 437 kts | 86° |
| 2026-05-08 00:25 | 49.93109 | -95.85829 | 23149 ft | 441 kts | 87° |
| 2026-05-08 00:25 | 49.93041 | -95.81058 | 23572 ft | 444 kts | 88° |
| 2026-05-08 00:25 | 49.92579 | -95.76281 | 23935 ft | 453 kts | 103° |
| 2026-05-08 00:26 | 49.91576 | -95.71625 | 24302 ft | 457 kts | 106° |
| 2026-05-08 00:26 | 49.90520 | -95.66955 | 24670 ft | 460 kts | 107° |
| 2026-05-08 00:26 | 49.89436 | -95.62266 | 25043 ft | 463 kts | 107° |
| 2026-05-08 00:26 | 49.88339 | -95.57568 | 25401 ft | 466 kts | 107° |
| 2026-05-08 00:27 | 49.87231 | -95.52832 | 25759 ft | 468 kts | 107° |
| 2026-05-08 00:27 | 49.86121 | -95.48076 | 26109 ft | 471 kts | 106° |
| 2026-05-08 00:27 | 49.85005 | -95.43287 | 26492 ft | 474 kts | 107° |
| 2026-05-08 00:27 | 49.83882 | -95.38478 | 26850 ft | 476 kts | 107° |
| 2026-05-08 00:28 | 49.82756 | -95.33653 | 27214 ft | 478 kts | 107° |
| 2026-05-08 00:28 | 49.81624 | -95.28796 | 27563 ft | 480 kts | 107° |
| 2026-05-08 00:28 | 49.80486 | -95.23925 | 27905 ft | 483 kts | 107° |
| 2026-05-08 00:28 | 49.79336 | -95.19027 | 28237 ft | 485 kts | 107° |
| 2026-05-08 00:29 | 49.78180 | -95.14111 | 28542 ft | 488 kts | 107° |
| 2026-05-08 00:29 | 49.77015 | -95.09171 | 28851 ft | 490 kts | 107° |
| 2026-05-08 00:29 | 49.75842 | -95.04214 | 29162 ft | 492 kts | 107° |
| 2026-05-08 00:29 | 49.74659 | -94.99231 | 29471 ft | 495 kts | 106° |
| 2026-05-08 00:30 | 49.73472 | -94.94228 | 29828 ft | 496 kts | 107° |
| 2026-05-08 00:30 | 49.72280 | -94.89215 | 30160 ft | 497 kts | 107° |
| 2026-05-08 00:30 | 49.71086 | -94.84214 | 30554 ft | 496 kts | 107° |
| 2026-05-08 00:30 | 49.69892 | -94.79222 | 30925 ft | 495 kts | 107° |
| 2026-05-08 00:31 | 49.68696 | -94.74240 | 31282 ft | 495 kts | 107° |
| 2026-05-08 00:31 | 49.67498 | -94.69265 | 31637 ft | 494 kts | 107° |
| 2026-05-08 00:31 | 49.66299 | -94.64297 | 31970 ft | 494 kts | 107° |
| 2026-05-08 00:31 | 49.65098 | -94.59332 | 32302 ft | 494 kts | 107° |
| 2026-05-08 00:32 | 49.63900 | -94.54372 | 32666 ft | 493 kts | 107° |
| 2026-05-08 00:32 | 49.62699 | -94.49421 | 33010 ft | 493 kts | 107° |
| 2026-05-08 00:32 | 49.61497 | -94.44475 | 33407 ft | 492 kts | 107° |
| 2026-05-08 00:32 | 49.60297 | -94.39539 | 33775 ft | 491 kts | 107° |
| 2026-05-08 00:33 | 49.59096 | -94.34615 | 34070 ft | 491 kts | 107° |
| 2026-05-08 00:33 | 49.57905 | -94.29749 | 34342 ft | 491 kts | 108° |
| 2026-05-08 00:33 | 49.56697 | -94.24832 | 34611 ft | 491 kts | 108° |
| 2026-05-08 00:33 | 49.55489 | -94.19918 | 34874 ft | 491 kts | 108° |
| 2026-05-08 00:34 | 49.54279 | -94.15010 | 35140 ft | 491 kts | 108° |
| 2026-05-08 00:34 | 49.53067 | -94.10099 | 35394 ft | 491 kts | 108° |
| 2026-05-08 00:34 | 49.51854 | -94.05187 | 35647 ft | 490 kts | 108° |
| 2026-05-08 00:34 | 49.50643 | -94.00284 | 35903 ft | 490 kts | 108° |
| 2026-05-08 00:35 | 49.49431 | -93.95382 | 36134 ft | 490 kts | 108° |
| 2026-05-08 00:35 | 49.48213 | -93.90476 | 36345 ft | 491 kts | 108° |
| 2026-05-08 00:35 | 49.46990 | -93.85577 | 36569 ft | 491 kts | 108° |
| 2026-05-08 00:35 | 49.45764 | -93.80688 | 36768 ft | 491 kts | 108° |
| 2026-05-08 00:36 | 49.44534 | -93.75788 | 36877 ft | 491 kts | 108° |
| 2026-05-08 00:36 | 49.43301 | -93.70896 | 36884 ft | 491 kts | 109° |
| 2026-05-08 00:36 | 49.40837 | -93.61133 | 36883 ft | 490 kts | 109° |
| 2026-05-08 00:37 | 49.38375 | -93.51373 | 36881 ft | 489 kts | 109° |
| 2026-05-08 00:38 | 49.34666 | -93.36787 | 36897 ft | 489 kts | 109° |
| 2026-05-08 00:38 | 49.32176 | -93.27076 | 36898 ft | 489 kts | 109° |
| 2026-05-08 00:39 | 49.30105 | -93.19011 | 36904 ft | 489 kts | 109° |
| 2026-05-08 00:39 | 49.27600 | -93.09321 | 36932 ft | 490 kts | 109° |
| 2026-05-08 00:40 | 49.25098 | -92.99628 | 36915 ft | 490 kts | 109° |
| 2026-05-08 00:40 | 49.22586 | -92.89939 | 36918 ft | 490 kts | 109° |
| 2026-05-08 00:41 | 49.20056 | -92.80267 | 36923 ft | 490 kts | 109° |
| 2026-05-08 00:41 | 49.17518 | -92.70596 | 36925 ft | 490 kts | 109° |
| 2026-05-08 00:42 | 49.14973 | -92.60932 | 36946 ft | 490 kts | 110° |
| 2026-05-08 00:42 | 49.12421 | -92.51275 | 36935 ft | 490 kts | 110° |
| 2026-05-08 00:43 | 49.09880 | -92.41700 | 36931 ft | 490 kts | 110° |
| 2026-05-08 00:43 | 49.07302 | -92.32077 | 36928 ft | 490 kts | 110° |
| 2026-05-08 00:44 | 49.04727 | -92.22464 | 36917 ft | 490 kts | 110° |
| 2026-05-08 00:44 | 49.02153 | -92.12850 | 36935 ft | 490 kts | 110° |
| 2026-05-08 00:45 | 48.99561 | -92.03242 | 36925 ft | 490 kts | 110° |
| 2026-05-08 00:45 | 48.96959 | -91.93646 | 36924 ft | 490 kts | 110° |
| 2026-05-08 00:46 | 48.94347 | -91.84052 | 36921 ft | 490 kts | 110° |
| 2026-05-08 00:46 | 48.91727 | -91.74481 | 36947 ft | 490 kts | 110° |
| 2026-05-08 00:47 | 48.89107 | -91.64909 | 36930 ft | 490 kts | 110° |
| 2026-05-08 00:47 | 48.86475 | -91.55349 | 36925 ft | 490 kts | 110° |
| 2026-05-08 00:48 | 48.83826 | -91.45803 | 36922 ft | 490 kts | 111° |
| 2026-05-08 00:48 | 48.81172 | -91.36267 | 36918 ft | 491 kts | 111° |
| 2026-05-08 00:49 | 48.78511 | -91.26729 | 36941 ft | 491 kts | 111° |
| 2026-05-08 00:49 | 48.75856 | -91.17197 | 36921 ft | 491 kts | 111° |
| 2026-05-08 00:50 | 48.73183 | -91.07685 | 36920 ft | 491 kts | 111° |
| 2026-05-08 00:50 | 48.70489 | -90.98184 | 36904 ft | 491 kts | 111° |
| 2026-05-08 00:51 | 48.67814 | -90.88758 | 36903 ft | 490 kts | 111° |
| 2026-05-08 00:51 | 48.65120 | -90.79277 | 36921 ft | 490 kts | 111° |
| 2026-05-08 00:52 | 48.62415 | -90.69807 | 36892 ft | 490 kts | 111° |
| 2026-05-08 00:52 | 48.59703 | -90.60358 | 36893 ft | 491 kts | 111° |
| 2026-05-08 00:53 | 48.56982 | -90.50900 | 36896 ft | 491 kts | 111° |
| 2026-05-08 00:53 | 48.54254 | -90.41453 | 36918 ft | 491 kts | 112° |
| 2026-05-08 00:54 | 48.51518 | -90.32026 | 36906 ft | 491 kts | 112° |
| 2026-05-08 00:54 | 48.48766 | -90.22616 | 36902 ft | 491 kts | 112° |
| 2026-05-08 00:55 | 48.46013 | -90.13198 | 36893 ft | 490 kts | 112° |
| 2026-05-08 00:55 | 48.43265 | -90.03798 | 36872 ft | 490 kts | 112° |
| 2026-05-08 00:56 | 48.40502 | -89.94407 | 36904 ft | 490 kts | 112° |
| 2026-05-08 00:56 | 48.37731 | -89.85040 | 36899 ft | 490 kts | 112° |
| 2026-05-08 00:57 | 48.34945 | -89.75679 | 36894 ft | 490 kts | 112° |
| 2026-05-08 00:57 | 48.32146 | -89.66333 | 36890 ft | 490 kts | 113° |
| 2026-05-08 00:58 | 48.29350 | -89.56997 | 36883 ft | 490 kts | 112° |
| 2026-05-08 00:58 | 48.26571 | -89.47671 | 36877 ft | 489 kts | 112° |
| 2026-05-08 00:59 | 48.23820 | -89.38406 | 36876 ft | 489 kts | 112° |
| 2026-05-08 00:59 | 48.21154 | -89.29019 | 36858 ft | 489 kts | 111° |
| 2026-05-08 01:00 | 48.18514 | -89.19616 | 36864 ft | 490 kts | 111° |
| 2026-05-08 01:00 | 48.15828 | -89.10241 | 36885 ft | 490 kts | 112° |
| 2026-05-08 01:01 | 48.13125 | -89.00886 | 36888 ft | 489 kts | 112° |
| 2026-05-08 01:01 | 48.10427 | -88.91534 | 36886 ft | 490 kts | 112° |
| 2026-05-08 01:02 | 48.07708 | -88.82192 | 36885 ft | 490 kts | 112° |
| 2026-05-08 01:02 | 48.04988 | -88.72858 | 36890 ft | 489 kts | 112° |
| 2026-05-08 01:03 | 48.02255 | -88.63543 | 36904 ft | 489 kts | 112° |
| 2026-05-08 01:03 | 47.99527 | -88.54241 | 36882 ft | 489 kts | 112° |
| 2026-05-08 01:04 | 47.96794 | -88.44945 | 36884 ft | 489 kts | 112° |
| 2026-05-08 01:04 | 47.94052 | -88.35641 | 36885 ft | 490 kts | 112° |
| 2026-05-08 01:05 | 47.91307 | -88.26423 | 36904 ft | 490 kts | 113° |
| 2026-05-08 01:05 | 47.88522 | -88.17086 | 36900 ft | 490 kts | 113° |
| 2026-05-08 01:06 | 47.85763 | -88.07893 | 36906 ft | 489 kts | 113° |
| 2026-05-08 01:06 | 47.82988 | -87.98644 | 36905 ft | 489 kts | 113° |
| 2026-05-08 01:07 | 47.80209 | -87.89394 | 36904 ft | 489 kts | 113° |
| 2026-05-08 01:07 | 47.77420 | -87.80167 | 36903 ft | 489 kts | 114° |
| 2026-05-08 01:08 | 47.74626 | -87.70951 | 36906 ft | 489 kts | 114° |
| 2026-05-08 01:08 | 47.71819 | -87.61749 | 36906 ft | 489 kts | 114° |
| 2026-05-08 01:09 | 47.68999 | -87.52561 | 36907 ft | 489 kts | 114° |
| 2026-05-08 01:09 | 47.66176 | -87.43367 | 36928 ft | 489 kts | 114° |
| 2026-05-08 01:10 | 47.63359 | -87.34183 | 36922 ft | 489 kts | 114° |
| 2026-05-08 01:10 | 47.60529 | -87.25029 | 36918 ft | 488 kts | 114° |
| 2026-05-08 01:11 | 47.57688 | -87.15893 | 36916 ft | 488 kts | 114° |
| 2026-05-08 01:11 | 47.54840 | -87.06757 | 36917 ft | 488 kts | 115° |
| 2026-05-08 01:12 | 47.51989 | -86.97640 | 36917 ft | 489 kts | 115° |
| 2026-05-08 01:12 | 47.49124 | -86.88525 | 36922 ft | 489 kts | 115° |
| 2026-05-08 01:13 | 47.46251 | -86.79417 | 36926 ft | 489 kts | 115° |
| 2026-05-08 01:13 | 47.43397 | -86.70375 | 36926 ft | 489 kts | 115° |
| 2026-05-08 01:14 | 47.40524 | -86.61284 | 36935 ft | 488 kts | 115° |
| 2026-05-08 01:14 | 47.37636 | -86.52213 | 36931 ft | 488 kts | 115° |
| 2026-05-08 01:15 | 47.34738 | -86.43146 | 36932 ft | 488 kts | 115° |
| 2026-05-08 01:15 | 47.31828 | -86.34093 | 36920 ft | 488 kts | 115° |
| 2026-05-08 01:16 | 47.28910 | -86.25052 | 36928 ft | 488 kts | 115° |
| 2026-05-08 01:16 | 47.25995 | -86.16016 | 36926 ft | 488 kts | 115° |
| 2026-05-08 01:17 | 47.23077 | -86.06993 | 36924 ft | 488 kts | 115° |
| 2026-05-08 01:17 | 47.20153 | -85.97984 | 36925 ft | 488 kts | 116° |
| 2026-05-08 01:18 | 47.17216 | -85.88993 | 36927 ft | 488 kts | 116° |
| 2026-05-08 01:18 | 47.14271 | -85.80004 | 36930 ft | 488 kts | 116° |
| 2026-05-08 01:19 | 47.11319 | -85.71013 | 36929 ft | 488 kts | 116° |
| 2026-05-08 01:19 | 47.08380 | -85.62100 | 36921 ft | 489 kts | 116° |
| 2026-05-08 01:20 | 47.05410 | -85.53138 | 36927 ft | 489 kts | 116° |
| 2026-05-08 01:20 | 47.02427 | -85.44184 | 36928 ft | 489 kts | 116° |
| 2026-05-08 01:21 | 46.99443 | -85.35236 | 36930 ft | 489 kts | 116° |
| 2026-05-08 01:21 | 46.96459 | -85.26287 | 36932 ft | 489 kts | 116° |
| 2026-05-08 01:22 | 46.93464 | -85.17354 | 36930 ft | 489 kts | 116° |
| 2026-05-08 01:22 | 46.90462 | -85.08437 | 36939 ft | 489 kts | 117° |
| 2026-05-08 01:23 | 46.87448 | -84.99526 | 36937 ft | 489 kts | 117° |
| 2026-05-08 01:23 | 46.84435 | -84.90620 | 36919 ft | 489 kts | 117° |
| 2026-05-08 01:24 | 46.81407 | -84.81734 | 36920 ft | 489 kts | 117° |
| 2026-05-08 01:24 | 46.78370 | -84.72844 | 36928 ft | 490 kts | 117° |
| 2026-05-08 01:25 | 46.75351 | -84.64002 | 36939 ft | 490 kts | 117° |
| 2026-05-08 01:25 | 46.72301 | -84.55119 | 36938 ft | 490 kts | 117° |
| 2026-05-08 01:26 | 46.69246 | -84.46239 | 36940 ft | 490 kts | 117° |
| 2026-05-08 01:26 | 46.66176 | -84.37370 | 36936 ft | 491 kts | 117° |
| 2026-05-08 01:27 | 46.63093 | -84.28512 | 36939 ft | 491 kts | 118° |
| 2026-05-08 01:27 | 46.60005 | -84.19662 | 36938 ft | 491 kts | 118° |
| 2026-05-08 01:28 | 46.56913 | -84.10818 | 36938 ft | 490 kts | 118° |
| 2026-05-08 01:28 | 46.54349 | -84.03476 | 36938 ft | 490 kts | 118° |
| 2026-05-08 01:29 | 46.51253 | -83.94655 | 36945 ft | 490 kts | 118° |
| 2026-05-08 01:29 | 46.48143 | -83.85856 | 36944 ft | 490 kts | 118° |
| 2026-05-08 01:30 | 46.45028 | -83.77071 | 36941 ft | 490 kts | 118° |
| 2026-05-08 01:30 | 46.41908 | -83.68286 | 36941 ft | 490 kts | 118° |
| 2026-05-08 01:31 | 46.38400 | -83.59876 | 36925 ft | 487 kts | 127° |
| 2026-05-08 01:31 | 46.34470 | -83.51870 | 36935 ft | 488 kts | 127° |
| 2026-05-08 01:32 | 46.30550 | -83.43858 | 36937 ft | 488 kts | 127° |
| 2026-05-08 01:32 | 46.26621 | -83.35856 | 36937 ft | 488 kts | 127° |
| 2026-05-08 01:33 | 46.22675 | -83.27877 | 36934 ft | 488 kts | 127° |
| 2026-05-08 01:33 | 46.18731 | -83.19921 | 36932 ft | 488 kts | 127° |
| 2026-05-08 01:34 | 46.14803 | -83.12017 | 36922 ft | 488 kts | 127° |
| 2026-05-08 01:34 | 46.10844 | -83.04070 | 36924 ft | 488 kts | 128° |
| 2026-05-08 01:35 | 46.06883 | -82.96127 | 36930 ft | 488 kts | 127° |
| 2026-05-08 01:35 | 46.02923 | -82.88184 | 36935 ft | 488 kts | 128° |
| 2026-05-08 01:36 | 45.98952 | -82.80257 | 36944 ft | 488 kts | 128° |
| 2026-05-08 01:36 | 45.94973 | -82.72348 | 36944 ft | 488 kts | 128° |
| 2026-05-08 01:37 | 45.90984 | -82.64459 | 36921 ft | 488 kts | 128° |
| 2026-05-08 01:37 | 45.87018 | -82.56627 | 36926 ft | 488 kts | 128° |
| 2026-05-08 01:38 | 45.83017 | -82.48747 | 36941 ft | 489 kts | 128° |
| 2026-05-08 01:38 | 45.79020 | -82.40876 | 36943 ft | 489 kts | 128° |
| 2026-05-08 01:39 | 45.75006 | -82.33014 | 36945 ft | 489 kts | 128° |
| 2026-05-08 01:39 | 45.70984 | -82.25173 | 36944 ft | 489 kts | 128° |
| 2026-05-08 01:40 | 45.66963 | -82.17333 | 36928 ft | 489 kts | 128° |
| 2026-05-08 01:40 | 45.62924 | -82.09500 | 36941 ft | 489 kts | 129° |
| 2026-05-08 01:41 | 45.58319 | -82.02425 | 36941 ft | 485 kts | 140° |
| 2026-05-08 01:41 | 45.53389 | -81.95857 | 36937 ft | 485 kts | 140° |
| 2026-05-08 01:42 | 45.48469 | -81.89275 | 36924 ft | 485 kts | 140° |
| 2026-05-08 01:42 | 45.43551 | -81.82677 | 36924 ft | 486 kts | 140° |
| 2026-05-08 01:43 | 45.38656 | -81.76131 | 36932 ft | 486 kts | 140° |
| 2026-05-08 01:43 | 45.33714 | -81.69562 | 36940 ft | 486 kts | 140° |
| 2026-05-08 01:44 | 45.28764 | -81.63008 | 36950 ft | 486 kts | 140° |
| 2026-05-08 01:44 | 45.23811 | -81.56469 | 36953 ft | 487 kts | 140° |
| 2026-05-08 01:45 | 45.18847 | -81.49922 | 36943 ft | 487 kts | 140° |
| 2026-05-08 01:45 | 45.13886 | -81.43388 | 36958 ft | 487 kts | 140° |
| 2026-05-08 01:46 | 45.08911 | -81.36872 | 36959 ft | 487 kts | 140° |
| 2026-05-08 01:46 | 45.03929 | -81.30369 | 36939 ft | 487 kts | 141° |
| 2026-05-08 01:47 | 44.98934 | -81.23839 | 36209 ft | 493 kts | 141° |
| 2026-05-08 01:47 | 44.96423 | -81.20562 | 35580 ft | 492 kts | 141° |
| 2026-05-08 01:47 | 44.93895 | -81.17275 | 34317 ft | 496 kts | 141° |
| 2026-05-08 01:48 | 44.88900 | -81.10776 | 32363 ft | 478 kts | 140° |
| 2026-05-08 01:48 | 44.86497 | -81.07646 | 31760 ft | 460 kts | 140° |
| 2026-05-08 01:48 | 44.84188 | -81.04646 | 31182 ft | 444 kts | 140° |
| 2026-05-08 01:48 | 44.81954 | -81.01758 | 30618 ft | 429 kts | 140° |
| 2026-05-08 01:49 | 44.79763 | -80.98937 | 30071 ft | 426 kts | 140° |
| 2026-05-08 01:49 | 44.77584 | -80.96138 | 29452 ft | 422 kts | 140° |
| 2026-05-08 01:49 | 44.75411 | -80.93346 | 28924 ft | 422 kts | 140° |
| 2026-05-08 01:49 | 44.73251 | -80.90573 | 28443 ft | 418 kts | 140° |
| 2026-05-08 01:50 | 44.71116 | -80.87824 | 27930 ft | 414 kts | 140° |
| 2026-05-08 01:50 | 44.68996 | -80.85099 | 27409 ft | 412 kts | 139° |
| 2026-05-08 01:50 | 44.66892 | -80.82393 | 26894 ft | 409 kts | 139° |
| 2026-05-08 01:50 | 44.64797 | -80.79704 | 26380 ft | 406 kts | 139° |
| 2026-05-08 01:51 | 44.62715 | -80.77041 | 25889 ft | 404 kts | 140° |
| 2026-05-08 01:51 | 44.60645 | -80.74398 | 25382 ft | 401 kts | 139° |
| 2026-05-08 01:51 | 44.58592 | -80.71774 | 24948 ft | 397 kts | 139° |
| 2026-05-08 01:51 | 44.56561 | -80.69174 | 24504 ft | 394 kts | 139° |
| 2026-05-08 01:52 | 44.54546 | -80.66597 | 24080 ft | 390 kts | 139° |
| 2026-05-08 01:52 | 44.52547 | -80.64041 | 23654 ft | 387 kts | 139° |
| 2026-05-08 01:52 | 44.50565 | -80.61513 | 23194 ft | 384 kts | 139° |
| 2026-05-08 01:52 | 44.48598 | -80.59017 | 22780 ft | 379 kts | 140° |
| 2026-05-08 01:53 | 44.46664 | -80.56569 | 22378 ft | 375 kts | 140° |
| 2026-05-08 01:53 | 44.44728 | -80.54117 | 21968 ft | 372 kts | 140° |
| 2026-05-08 01:53 | 44.42819 | -80.51697 | 21567 ft | 369 kts | 140° |
| 2026-05-08 01:53 | 44.40920 | -80.49287 | 21154 ft | 367 kts | 140° |
| 2026-05-08 01:54 | 44.39062 | -80.46930 | 20753 ft | 365 kts | 140° |
| 2026-05-08 01:54 | 44.37163 | -80.44520 | 20335 ft | 363 kts | 140° |
| 2026-05-08 01:54 | 44.35299 | -80.42162 | 19914 ft | 361 kts | 140° |
| 2026-05-08 01:54 | 44.33466 | -80.39848 | 19503 ft | 359 kts | 140° |
| 2026-05-08 01:55 | 44.31620 | -80.37519 | 19079 ft | 357 kts | 140° |
| 2026-05-08 01:55 | 44.29744 | -80.35158 | 18587 ft | 370 kts | 140° |
| 2026-05-08 01:55 | 44.27818 | -80.32735 | 18073 ft | 374 kts | 140° |
| 2026-05-08 01:55 | 44.25887 | -80.30307 | 17515 ft | 373 kts | 140° |
| 2026-05-08 01:56 | 44.23938 | -80.27858 | 16943 ft | 372 kts | 140° |
| 2026-05-08 01:56 | 44.22046 | -80.25474 | 16428 ft | 370 kts | 140° |
| 2026-05-08 01:56 | 44.20138 | -80.23076 | 15900 ft | 369 kts | 140° |
| 2026-05-08 01:56 | 44.18231 | -80.20687 | 15368 ft | 368 kts | 140° |
| 2026-05-08 01:57 | 44.16333 | -80.18311 | 14857 ft | 366 kts | 140° |
| 2026-05-08 01:57 | 44.14442 | -80.15945 | 14354 ft | 365 kts | 140° |
| 2026-05-08 01:57 | 44.12560 | -80.13587 | 13861 ft | 363 kts | 140° |
| 2026-05-08 01:57 | 44.10683 | -80.11239 | 13320 ft | 361 kts | 140° |
| 2026-05-08 01:58 | 44.08820 | -80.08909 | 12765 ft | 360 kts | 141° |
| 2026-05-08 01:58 | 44.06963 | -80.06588 | 12223 ft | 358 kts | 141° |
| 2026-05-08 01:58 | 44.05127 | -80.04297 | 11677 ft | 348 kts | 141° |
| 2026-05-08 01:58 | 44.03383 | -80.02117 | 11286 ft | 325 kts | 141° |
| 2026-05-08 01:59 | 44.01741 | -80.00121 | 11025 ft | 306 kts | 147° |
| 2026-05-08 01:59 | 43.99985 | -79.98512 | 10765 ft | 300 kts | 152° |
| 2026-05-08 01:59 | 43.98223 | -79.96964 | 10523 ft | 299 kts | 152° |
| 2026-05-08 01:59 | 43.96470 | -79.95416 | 10270 ft | 297 kts | 151° |
| 2026-05-08 02:00 | 43.94734 | -79.93877 | 10029 ft | 296 kts | 151° |
| 2026-05-08 02:00 | 43.93024 | -79.92357 | 9868 ft | 286 kts | 151° |
| 2026-05-08 02:00 | 43.91371 | -79.90889 | 9593 ft | 280 kts | 151° |
| 2026-05-08 02:00 | 43.89729 | -79.89439 | 9181 ft | 279 kts | 151° |
| 2026-05-08 02:01 | 43.88110 | -79.88015 | 8763 ft | 270 kts | 151° |
| 2026-05-08 02:01 | 43.86600 | -79.86568 | 8357 ft | 261 kts | 138° |
| 2026-05-08 02:01 | 43.85646 | -79.84456 | 8060 ft | 260 kts | 107° |
| 2026-05-08 02:01 | 43.85437 | -79.81966 | 8011 ft | 262 kts | 91° |
| 2026-05-08 02:02 | 43.85416 | -79.79442 | 8012 ft | 263 kts | 90° |
| 2026-05-08 02:02 | 43.85412 | -79.76910 | 7963 ft | 261 kts | 90° |
| 2026-05-08 02:02 | 43.85412 | -79.74429 | 7692 ft | 253 kts | 90° |
| 2026-05-08 02:02 | 43.85413 | -79.72008 | 7384 ft | 250 kts | 90° |
| 2026-05-08 02:03 | 43.85415 | -79.69611 | 7101 ft | 248 kts | 90° |
| 2026-05-08 02:03 | 43.85416 | -79.67228 | 6684 ft | 246 kts | 90° |
| 2026-05-08 02:03 | 43.85419 | -79.64870 | 6275 ft | 244 kts | 90° |
| 2026-05-08 02:03 | 43.85422 | -79.62537 | 5819 ft | 240 kts | 90° |
| 2026-05-08 02:04 | 43.85424 | -79.60231 | 5398 ft | 238 kts | 90° |
| 2026-05-08 02:04 | 43.85427 | -79.57942 | 4979 ft | 236 kts | 90° |
| 2026-05-08 02:04 | 43.85428 | -79.55682 | 4543 ft | 233 kts | 90° |
| 2026-05-08 02:04 | 43.85389 | -79.53454 | 4130 ft | 230 kts | 97° |
| 2026-05-08 02:05 | 43.84742 | -79.51479 | 3701 ft | 225 kts | 131° |
| 2026-05-08 02:05 | 43.83632 | -79.49964 | 3305 ft | 223 kts | 139° |
| 2026-05-08 02:05 | 43.82476 | -79.48544 | 3014 ft | 221 kts | 140° |
| 2026-05-08 02:05 | 43.81317 | -79.47146 | 3010 ft | 221 kts | 140° |
| 2026-05-08 02:06 | 43.80114 | -79.45870 | 3002 ft | 221 kts | 154° |
| 2026-05-08 02:06 | 43.78628 | -79.45515 | 3014 ft | 218 kts | 185° |
| 2026-05-08 02:06 | 43.77182 | -79.46074 | 3013 ft | 216 kts | 208° |
| 2026-05-08 02:06 | 43.76034 | -79.47312 | 2982 ft | 198 kts | 228° |
| 2026-05-08 02:07 | 43.75146 | -79.48611 | 2799 ft | 176 kts | 228° |
| 2026-05-08 02:07 | 43.74334 | -79.49798 | 2580 ft | 164 kts | 228° |
| 2026-05-08 02:07 | 43.73569 | -79.50916 | 2367 ft | 157 kts | 229° |
| 2026-05-08 02:07 | 43.72851 | -79.51963 | 2160 ft | 145 kts | 229° |
| 2026-05-08 02:08 | 43.72167 | -79.52963 | 1953 ft | 142 kts | 229° |
| 2026-05-08 02:08 | 43.71488 | -79.53951 | 1767 ft | 142 kts | 229° |
| 2026-05-08 02:08 | 43.70802 | -79.54934 | 1482 ft | 141 kts | 228° |
| 2026-05-08 02:08 | 43.70112 | -79.55895 | 1246 ft | 140 kts | 226° |
| 2026-05-08 02:09 | 43.69450 | -79.56878 | 1092 ft | 139 kts | 229° |
| 2026-05-08 02:09 | 43.68826 | -79.57904 | 887 ft | 140 kts | 221° |
| 2026-05-08 02:09 | 43.68112 | -79.58817 | 779 ft | 141 kts | 225° |
| 2026-05-08 02:09 | 43.67472 | -79.59812 | 622 ft | 133 kts | 224° |
| 2026-05-08 02:10 | 43.66880 | -79.60659 | 561 ft | 99 kts | 224° |
| 2026-05-08 02:10 | 43.66614 | -79.61046 | 567 ft | 12 kts | 227° |
| 2026-05-08 02:10 | 43.66507 | -79.61207 | 564 ft | 44 kts | 228° |
| 2026-05-08 02:10 | 43.66408 | -79.61468 | 561 ft | 8 kts | 251° |
| 2026-05-08 02:11 | 43.66387 | -79.61554 | 564 ft | 18 kts | 252° |
| 2026-05-08 02:11 | 43.66407 | -79.61740 | 569 ft | 20 kts | 316° |
| 2026-05-08 02:11 | 43.66509 | -79.61867 | 578 ft | 20 kts | 318° |
| 2026-05-08 02:11 | 43.66603 | -79.61989 | 561 ft | 13 kts | 320° |
| 2026-05-08 02:12 | 43.66686 | -79.61982 | 568 ft | 19 kts | 33° |
| 2026-05-08 02:12 | 43.66803 | -79.61837 | 572 ft | 23 kts | 42° |
| 2026-05-08 02:12 | 43.66921 | -79.61690 | 571 ft | 23 kts | 40° |
| 2026-05-08 02:12 | 43.67035 | -79.61545 | 569 ft | 22 kts | 43° |
| 2026-05-08 02:13 | 43.67145 | -79.61408 | 569 ft | 22 kts | 42° |
| 2026-05-08 02:13 | 43.67237 | -79.61268 | 566 ft | 17 kts | 30° |
| 2026-05-08 02:13 | 43.67335 | -79.61336 | 564 ft | 17 kts | 315° |
| 2026-05-08 02:13 | 43.67419 | -79.61448 | 565 ft | 16 kts | 316° |
| 2026-05-08 02:14 | 43.67501 | -79.61554 | 563 ft | 17 kts | 316° |
| 2026-05-08 02:14 | 43.67593 | -79.61673 | 573 ft | 18 kts | 317° |
| 2026-05-08 02:14 | 43.67693 | -79.61803 | 567 ft | 20 kts | 316° |
| 2026-05-08 02:14 | 43.67783 | -79.61920 | 571 ft | 17 kts | 316° |
| 2026-05-08 02:15 | 43.67870 | -79.62033 | 565 ft | 18 kts | 316° |
| 2026-05-08 02:15 | 43.67970 | -79.62019 | 571 ft | 16 kts | 54° |
| 2026-05-08 02:15 | 43.68017 | -79.61890 | 570 ft | 15 kts | 49° |
| 2026-05-08 02:15 | 43.68047 | -79.61844 | 566 ft | 6 kts | 47° |
| 2026-05-08 02:16 | 43.68070 | -79.61811 | 570 ft | 6 kts | 47° |
| 2026-05-08 02:16 | 43.68055 | -79.61747 | 565 ft | 6 kts | 140° |
| 2026-05-08 02:16 | 43.68036 | -79.61724 | 567 ft | 4 kts | 137° |
| 2026-05-08 02:16 | 43.68031 | -79.61717 | 569 ft | 0 kts | 137° |